Time;durP1;ratioP1;P1;durP2;ratioP2;P2;SDS_P1;SDS_P2;PMS_P1;PMS_P2;Temp;Humidity;BMP_temperature;BMP_pressure;BME280_temperature;BME280_humidity;BME280_pressure;Samples;Min_cycle;Max_cycle;Signal;HPM_P1;HPM_P2
2022/03/27 00:02:06;;;;;;;28.98;20.27;;;;;;;15.02;31.35;102417.19;5089440;28;20052;-63
2022/03/27 00:04:33;;;;;;;29.05;21.23;;;;;;;14.95;31.48;102426.34;5089163;28;20507;-63
2022/03/27 00:07:00;;;;;;;28.98;20.67;;;;;;;14.98;31.51;102423.53;5079765;28;20105;-63
2022/03/27 00:09:26;;;;;;;33.28;21.58;;;;;;;14.91;31.61;102419.50;5089289;28;20442;-63
2022/03/27 00:11:53;;;;;;;37.92;22.40;;;;;;;14.84;31.73;102419.78;5088917;28;20548;-63
2022/03/27 00:14:20;;;;;;;33.92;22.48;;;;;;;14.80;32.11;102420.00;5088907;28;20055;-63
2022/03/27 00:16:46;;;;;;;37.20;23.98;;;;;;;14.80;31.98;102420.84;5090658;28;20059;-62
2022/03/27 00:19:13;;;;;;;38.35;23.65;;;;;;;14.76;31.95;102415.78;5092176;28;20508;-63
2022/03/27 00:21:42;;;;;;;30.75;22.60;;;;;;;14.77;32.09;102413.06;5087305;28;20106;-63
2022/03/27 00:24:08;;;;;;;34.58;23.63;;;;;;;14.76;32.06;102424.56;5072070;28;20481;-63
2022/03/27 00:26:35;;;;;;;34.17;23.38;;;;;;;14.72;31.96;102420.34;5072048;28;20051;-63
2022/03/27 00:29:02;;;;;;;33.60;22.08;;;;;;;14.69;32.11;102413.44;5072107;28;20049;-63
2022/03/27 00:31:35;;;;;;;31.50;22.85;;;;;;;14.65;32.30;102417.16;5081227;28;20040;-63
2022/03/27 00:34:04;;;;;;;34.97;23.10;;;;;;;14.58;32.16;102417.47;5085915;28;20048;-63
2022/03/27 00:36:31;;;;;;;33.08;22.13;;;;;;;14.54;32.37;102419.41;5072622;28;20118;-63
2022/03/27 00:38:57;;;;;;;33.95;22.88;;;;;;;14.51;32.48;102414.25;5071599;28;20105;-63
2022/03/27 00:41:24;;;;;;;40.53;24.35;;;;;;;14.46;32.59;102416.25;5090318;28;20090;-63
2022/03/27 00:43:51;;;;;;;48.42;28.90;;;;;;;14.39;32.78;102413.03;5092129;28;20097;-63
2022/03/27 00:46:18;;;;;;;55.05;29.25;;;;;;;14.34;32.96;102421.16;5080377;28;20045;-63
2022/03/27 00:48:44;;;;;;;41.15;24.58;;;;;;;14.30;33.04;102416.13;5071771;28;20123;-63
2022/03/27 00:51:11;;;;;;;43.78;26.92;;;;;;;14.27;33.29;102418.88;5073988;28;20045;-63
2022/03/27 00:53:38;;;;;;;58.70;30.80;;;;;;;14.21;33.14;102409.47;5074941;28;20045;-63
2022/03/27 00:56:04;;;;;;;66.07;32.67;;;;;;;14.18;33.37;102413.09;5075533;28;20101;-63
2022/03/27 00:58:31;;;;;;;64.53;33.70;;;;;;;14.16;33.57;102403.53;5075336;28;20443;-63
2022/03/27 01:01:07;;;;;;;63.33;32.65;;;;;;;14.11;33.54;102402.88;5092103;28;20120;-63
2022/03/27 01:03:33;;;;;;;46.85;27.52;;;;;;;14.09;33.63;102405.56;5095594;28;20044;-63
2022/03/27 01:06:00;;;;;;;42.72;24.67;;;;;;;14.09;33.37;102405.56;5095698;28;20051;-63
2022/03/27 01:11:36;;;;;;;65.68;35.17;;;;;;;13.94;33.77;102408.91;5033017;28;20045;-63
2022/03/27 01:14:03;;;;;;;41.50;24.92;;;;;;;13.94;33.47;102400.97;5033055;28;20155;-63
2022/03/27 01:16:41;;;;;;;35.28;23.65;;;;;;;13.85;33.51;102408.41;5053407;28;20053;-63
2022/03/27 01:19:14;;;;;;;40.75;24.08;;;;;;;13.81;33.75;102404.16;5075125;28;20080;-63
2022/03/27 01:21:44;;;;;;;36.97;23.95;;;;;;;13.80;33.75;102405.09;5075033;28;20122;-63
2022/03/27 01:24:11;;;;;;;36.80;24.30;;;;;;;13.77;34.09;102404.38;5075076;28;20463;-63
2022/03/27 01:26:39;;;;;;;34.13;22.88;;;;;;;13.78;34.05;102401.66;5076883;28;20057;-63
2022/03/27 01:29:06;;;;;;;33.13;22.63;;;;;;;13.78;34.08;102392.91;5095330;28;20094;-63
2022/03/27 01:31:34;;;;;;;33.25;22.65;;;;;;;13.73;34.30;102397.53;5095150;28;20045;-63
2022/03/27 01:34:01;;;;;;;42.97;25.83;;;;;;;13.63;34.55;102397.91;5095196;28;20048;-63
2022/03/27 01:36:34;;;;;;;44.50;25.83;;;;;;;13.54;34.95;102391.22;5094852;28;20477;-63
2022/03/27 01:39:07;;;;;;;41.58;25.08;;;;;;;13.49;35.17;102395.84;5094971;28;20054;-63
2022/03/27 01:41:35;;;;;;;34.30;23.25;;;;;;;13.44;35.30;102387.28;5094870;28;20093;-63
2022/03/27 01:44:05;;;;;;;35.05;22.80;;;;;;;13.43;35.47;102388.19;5093643;28;20480;-63
2022/03/27 01:46:37;;;;;;;36.60;24.40;;;;;;;13.42;35.58;102393.53;5094752;28;20055;-63
2022/03/27 01:49:07;;;;;;;35.63;22.88;;;;;;;13.40;35.65;102385.69;5094825;28;20101;-63
2022/03/27 01:51:34;;;;;;;37.70;23.52;;;;;;;13.35;35.91;102388.50;5094653;28;20102;-63
2022/03/27 01:54:01;;;;;;;35.25;22.90;;;;;;;13.36;35.91;102384.09;5094497;28;20056;-63
2022/03/27 01:56:27;;;;;;;36.75;24.30;;;;;;;13.31;36.16;102384.28;5094545;28;20076;-63
2022/03/27 01:58:54;;;;;;;46.05;27.73;;;;;;;13.20;36.51;102386.50;5094535;28;20055;-63
2022/03/27 02:01:21;;;;;;;46.60;28.42;;;;;;;13.11;36.80;102387.72;5091953;28;20044;-64
2022/03/27 02:03:49;;;;;;;39.65;25.02;;;;;;;13.06;36.73;102390.56;5073552;28;20101;-63
2022/03/27 02:06:16;;;;;;;35.15;23.50;;;;;;;13.02;36.73;102393.38;5074286;28;20044;-63
2022/03/27 02:08:44;;;;;;;35.08;23.10;;;;;;;13.04;36.54;102387.13;5074047;28;20049;-63
2022/03/27 02:11:10;;;;;;;33.78;23.48;;;;;;;13.04;36.77;102400.31;5074063;28;20053;-63
2022/03/27 02:13:37;;;;;;;35.03;24.27;;;;;;;13.05;36.69;102401.16;5073730;28;20049;-63
2022/03/27 02:16:04;;;;;;;35.70;24.80;;;;;;;13.04;36.83;102402.09;5073744;28;20044;-63
2022/03/27 02:18:32;;;;;;;35.85;24.98;;;;;;;13.03;36.79;102410.91;5073401;28;20062;-62
2022/03/27 02:21:00;;;;;;;36.33;25.27;;;;;;;13.03;36.96;102406.50;5073941;28;20072;-63
2022/03/27 02:23:28;;;;;;;37.42;25.42;;;;;;;13.01;36.96;102405.69;5073691;28;20045;-63
2022/03/27 02:25:55;;;;;;;37.72;25.95;;;;;;;12.96;37.23;102407.66;5073574;28;20040;-63
2022/03/27 02:28:23;;;;;;;35.00;23.50;;;;;;;12.95;37.30;102399.81;5073722;28;20044;-63
2022/03/27 02:30:50;;;;;;;35.00;24.25;;;;;;;12.97;37.23;102400.63;5073701;28;20394;-63
2022/03/27 02:33:17;;;;;;;35.90;22.90;;;;;;;12.94;37.27;102400.72;5076033;28;20086;-63
2022/03/27 02:35:43;;;;;;;33.95;23.75;;;;;;;12.85;37.45;102397.56;5093669;28;20048;-63
2022/03/27 02:38:10;;;;;;;34.75;24.70;;;;;;;12.80;37.76;102396.88;5093653;28;20063;-63
2022/03/27 02:40:38;;;;;;;33.75;24.45;;;;;;;12.76;37.91;102400.56;5093631;28;20040;-63
2022/03/27 02:43:05;;;;;;;37.15;24.95;;;;;;;12.69;38.12;102397.28;5093656;28;20043;-63
2022/03/27 02:45:33;;;;;;;34.75;23.90;;;;;;;12.73;38.08;102398.03;5093704;28;20051;-63
2022/03/27 02:48:00;;;;;;;32.20;23.08;;;;;;;12.69;38.09;102401.72;5093681;28;20412;-63
2022/03/27 02:50:29;;;;;;;35.40;23.88;;;;;;;12.67;38.11;102400.91;5074343;28;20110;-63
2022/03/27 02:52:57;;;;;;;36.10;23.67;;;;;;;12.79;37.79;102405.69;5073270;28;20113;-63
2022/03/27 02:55:24;;;;;;;42.03;26.33;;;;;;;12.72;37.83;102402.44;5073027;28;20094;-63
2022/03/27 02:57:52;;;;;;;65.55;33.78;;;;;;;12.70;37.95;102403.44;5073054;28;20045;-63
2022/03/27 03:00:19;;;;;;;72.28;36.15;;;;;;;12.56;38.23;102411.88;5073001;28;20459;-63
2022/03/27 03:02:46;;;;;;;83.57;38.42;;;;;;;12.44;38.45;102420.22;5075890;28;20067;-63
2022/03/27 03:05:13;;;;;;;126.30;53.72;;;;;;;12.35;38.66;102417.00;5090259;28;20044;-63
2022/03/27 03:07:41;;;;;;;133.82;57.33;;;;;;;12.23;38.96;102415.69;5069556;28;20094;-63
2022/03/27 03:10:09;;;;;;;112.05;50.78;;;;;;;12.16;38.98;102411.56;5069578;28;20117;-63
2022/03/27 03:12:39;;;;;;;129.32;55.05;;;;;;;12.09;38.93;102410.94;5069616;28;20052;-63
2022/03/27 03:15:06;;;;;;;135.85;57.80;;;;;;;12.00;39.07;102413.91;5069109;28;20110;-63
2022/03/27 03:17:33;;;;;;;141.55;60.25;;;;;;;11.93;39.17;102417.63;5068999;28;20040;-63
2022/03/27 03:19:59;;;;;;;71.45;37.42;;;;;;;12.03;38.95;102418.19;5069285;28;20792;-63
2022/03/27 03:22:27;;;;;;;69.85;36.80;;;;;;;12.03;39.33;102420.81;5076275;28;20446;-63
2022/03/27 03:24:54;;;;;;;52.97;31.25;;;;;;;12.02;39.40;102416.47;5089713;28;20492;-63
2022/03/27 03:27:20;;;;;;;44.65;28.00;;;;;;;11.99;39.57;102419.22;5089649;28;20113;-63
2022/03/27 03:29:47;;;;;;;44.17;28.83;;;;;;;11.98;39.78;102430.66;5089621;28;20484;-63
2022/03/27 03:32:14;;;;;;;43.50;26.67;;;;;;;11.96;39.79;102430.72;5089498;28;20044;-63
2022/03/27 03:34:40;;;;;;;34.33;25.80;;;;;;;11.95;39.97;102435.97;5089553;28;20059;-63
2022/03/27 03:37:07;;;;;;;36.65;24.20;;;;;;;11.85;40.09;102432.81;5089777;28;20048;-63
2022/03/27 03:39:34;;;;;;;34.53;26.05;;;;;;;11.86;40.26;102424.00;5082806;28;20564;-63
2022/03/27 03:42:00;;;;;;;36.15;24.67;;;;;;;11.83;40.16;102430.22;5069139;28;20052;-63
2022/03/27 03:44:27;;;;;;;38.97;26.92;;;;;;;11.75;40.47;102422.59;5068986;28;20052;-63
2022/03/27 03:46:54;;;;;;;39.15;26.55;;;;;;;11.64;40.66;102435.25;5069038;28;20060;-63
2022/03/27 03:49:23;;;;;;;43.40;26.63;;;;;;;11.57;40.86;102429.34;5069195;28;20543;-63
2022/03/27 03:51:51;;;;;;;45.25;27.48;;;;;;;11.54;40.98;102433.84;5069108;28;20523;-63
2022/03/27 03:54:18;;;;;;;41.45;26.67;;;;;;;11.40;40.82;102434.31;5068954;28;20497;-63
2022/03/27 03:56:44;;;;;;;84.22;41.20;;;;;;;11.31;40.77;102434.63;5068790;28;20106;-63
2022/03/27 03:59:11;;;;;;;134.27;59.08;;;;;;;11.28;40.73;102444.31;5087538;28;20074;-63
2022/03/27 04:01:54;;;;;;;152.57;67.07;;;;;;;11.27;40.69;102439.13;5089060;28;20050;-63
2022/03/27 04:04:21;;;;;;;113.10;51.72;;;;;;;11.21;40.76;102440.19;5089102;28;20044;-63
2022/03/27 04:06:48;;;;;;;77.28;40.03;;;;;;;11.18;40.66;102435.00;5089169;28;20101;-63
2022/03/27 04:09:14;;;;;;;104.30;49.03;;;;;;;11.14;40.54;102441.28;5088897;28;20443;-63
2022/03/27 04:11:41;;;;;;;83.45;41.22;;;;;;;11.04;40.82;102437.22;5088811;28;20113;-63
2022/03/27 04:14:07;;;;;;;114.80;48.38;;;;;;;10.97;40.84;102439.19;5087941;28;20109;-63
2022/03/27 04:16:34;;;;;;;117.50;55.05;;;;;;;10.93;40.65;102435.81;5088742;28;20056;-63
2022/03/27 04:19:01;;;;;;;176.23;76.63;;;;;;;10.86;40.82;102436.03;5089137;28;20398;-63
2022/03/27 04:21:27;;;;;;;151.48;69.50;;;;;;;10.87;41.04;102435.97;5088979;28;20048;-63
2022/03/27 04:23:54;;;;;;;100.68;49.80;;;;;;;10.91;40.77;102426.25;5089003;28;20094;-63
2022/03/27 04:26:20;;;;;;;90.75;46.05;;;;;;;10.87;41.00;102433.34;5091186;28;20044;-63
2022/03/27 04:28:47;;;;;;;78.43;41.50;;;;;;;10.86;41.09;102434.25;5092739;28;20480;-63
2022/03/27 04:31:14;;;;;;;60.88;36.20;;;;;;;10.92;40.85;102427.97;5073684;28;20052;-63
2022/03/27 04:33:41;;;;;;;56.75;33.95;;;;;;;10.97;41.00;102438.31;5072725;28;20443;-63
2022/03/27 04:36:08;;;;;;;56.75;33.70;;;;;;;11.02;41.11;102441.66;5072605;28;20055;-63
2022/03/27 04:38:36;;;;;;;62.65;33.67;;;;;;;10.95;41.28;102451.50;5072558;28;20052;-63
2022/03/27 04:41:03;;;;;;;71.15;35.45;;;;;;;10.89;41.65;102447.31;5072297;28;20040;-63
2022/03/27 04:43:30;;;;;;;67.60;36.53;;;;;;;10.86;41.66;102446.53;5072422;28;20052;-63
2022/03/27 04:45:56;;;;;;;62.80;34.63;;;;;;;10.93;41.67;102451.56;5071914;28;20044;-63
2022/03/27 04:48:25;;;;;;;55.10;33.92;;;;;;;10.89;42.08;102447.31;5072424;28;20063;-63
2022/03/27 04:50:53;;;;;;;57.78;35.35;;;;;;;10.92;42.22;102459.50;5072497;28;20044;-63
2022/03/27 04:53:20;;;;;;;58.40;35.53;;;;;;;10.86;42.32;102451.78;5072267;28;20080;-63
2022/03/27 04:55:47;;;;;;;74.50;38.25;;;;;;;10.78;42.72;102455.50;5072238;28;20044;-63
2022/03/27 04:58:15;;;;;;;64.68;35.40;;;;;;;10.74;43.13;102463.50;5072166;28;20048;-63
2022/03/27 05:00:41;;;;;;;69.10;35.78;;;;;;;10.68;43.60;102459.31;5071881;28;20078;-63
2022/03/27 05:03:14;;;;;;;63.10;35.78;;;;;;;10.64;43.90;102462.94;5077073;28;20040;-63
2022/03/27 05:05:55;;;;;;;62.92;34.58;;;;;;;10.56;44.05;102470.16;5091249;28;20048;-63
2022/03/27 05:08:27;;;;;;;55.63;32.47;;;;;;;10.57;44.25;102459.59;5091768;28;20048;-63
2022/03/27 05:10:54;;;;;;;55.80;32.50;;;;;;;10.65;44.35;102467.25;5092385;28;20056;-63
2022/03/27 05:13:20;;;;;;;51.97;30.40;;;;;;;10.64;44.52;102462.94;5092057;28;20074;-63
2022/03/27 05:15:48;;;;;;;38.60;26.33;;;;;;;10.60;44.52;102469.16;5091930;28;20052;-63
2022/03/27 05:18:14;;;;;;;49.00;28.10;;;;;;;10.58;44.55;102463.97;5088540;28;20052;-63
2022/03/27 05:20:42;;;;;;;54.17;28.60;;;;;;;10.55;44.57;102471.06;5071511;28;20056;-63
2022/03/27 05:23:09;;;;;;;60.60;30.80;;;;;;;10.55;44.57;102477.19;5071514;28;20086;-63
2022/03/27 05:25:42;;;;;;;76.80;38.45;;;;;;;10.56;44.40;102473.66;5071579;28;20079;-63
2022/03/27 05:28:09;;;;;;;78.15;38.53;;;;;;;10.55;43.98;102471.94;5071699;28;20390;-63
2022/03/27 05:30:37;;;;;;;74.47;37.13;;;;;;;10.60;43.84;102475.28;5071827;28;20477;-63
2022/03/27 05:33:05;;;;;;;66.68;35.70;;;;;;;10.70;43.55;102475.84;5071575;28;20122;-63
2022/03/27 05:38:07;;;;;;;92.97;44.40;;;;;;;10.75;43.38;102483.63;4924696;23;20093;-62
2022/03/27 05:40:33;;;;;;;126.53;56.83;;;;;;;10.76;43.39;102487.97;5030751;28;20057;-62
2022/03/27 05:43:00;;;;;;;120.82;55.00;;;;;;;10.77;43.47;102493.16;5031421;28;20493;-62
2022/03/27 05:45:27;;;;;;;80.25;39.53;;;;;;;10.80;43.60;102492.22;5031562;28;20045;-62
2022/03/27 05:47:55;;;;;;;66.05;36.33;;;;;;;10.83;43.68;102491.25;5031446;28;20053;-62
2022/03/27 05:50:22;;;;;;;60.92;34.58;;;;;;;10.85;44.10;102490.31;5031304;28;20046;-62
2022/03/27 05:52:51;;;;;;;67.45;36.40;;;;;;;10.90;44.33;102496.28;5031410;28;20046;-62
2022/03/27 05:55:18;;;;;;;60.88;34.50;;;;;;;10.94;44.43;102500.56;5030394;28;20891;-62
2022/03/27 05:57:46;;;;;;;63.85;36.10;;;;;;;10.93;44.41;102500.59;5031313;28;20405;-62
2022/03/27 06:00:16;;;;;;;64.07;35.67;;;;;;;10.94;44.69;102502.31;5031179;28;20053;-62
2022/03/27 06:02:43;;;;;;;56.47;31.48;;;;;;;10.99;44.90;102502.19;5031305;28;20049;-62
2022/03/27 06:05:10;;;;;;;52.53;32.38;;;;;;;11.03;45.00;102504.66;5030906;28;20060;-62
2022/03/27 06:07:48;;;;;;;45.05;27.48;;;;;;;11.16;45.22;102509.53;5031024;28;20046;-62
2022/03/27 06:10:19;;;;;;;21.85;13.40;;;;;;;12.17;44.75;102510.66;5030409;28;20049;-62
2022/03/27 06:12:45;;;;;;;47.05;29.15;;;;;;;11.84;45.63;102510.03;5031229;28;20041;-62
2022/03/27 06:15:13;;;;;;;43.50;27.13;;;;;;;11.69;45.98;102520.13;5030712;28;20053;-63
2022/03/27 06:17:46;;;;;;;40.10;26.80;;;;;;;11.58;45.81;102523.09;5030616;28;20045;-63
2022/03/27 06:20:15;;;;;;;39.95;26.35;;;;;;;11.49;45.67;102530.41;5030246;28;20131;-63
2022/03/27 06:22:42;;;;;;;40.33;27.38;;;;;;;11.52;45.71;102532.97;5030718;28;20050;-63
2022/03/27 06:25:11;;;;;;;41.58;27.02;;;;;;;11.56;45.18;102534.59;5030782;28;20394;-63
2022/03/27 06:27:38;;;;;;;39.47;27.50;;;;;;;11.58;44.85;102530.16;5029217;28;20045;-63
2022/03/27 06:30:10;;;;;;;38.85;28.45;;;;;;;11.60;44.63;102537.09;5030406;28;20455;-63
2022/03/27 06:32:38;;;;;;;44.83;28.85;;;;;;;11.69;44.08;102537.69;5030535;28;20050;-63
2022/03/27 06:35:05;;;;;;;42.88;28.58;;;;;;;11.71;43.93;102541.13;5030526;28;20045;-63
2022/03/27 06:37:33;;;;;;;39.28;27.20;;;;;;;11.71;43.92;102541.13;5030380;28;20052;-63
2022/03/27 06:40:02;;;;;;;41.40;28.02;;;;;;;11.77;43.65;102533.88;5030029;28;20053;-63
2022/03/27 06:42:29;;;;;;;44.22;27.92;;;;;;;11.86;43.58;102539.75;5030284;28;20049;-63
2022/03/27 06:44:55;;;;;;;45.10;29.60;;;;;;;11.95;43.27;102541.22;5028692;28;20405;-63
2022/03/27 06:47:27;;;;;;;44.95;28.17;;;;;;;12.14;43.00;102537.09;5030355;28;20064;-63
2022/03/27 06:49:56;;;;;;;42.90;29.58;;;;;;;12.33;42.59;102533.81;5029942;28;20050;-64
2022/03/27 06:52:25;;;;;;;42.65;29.05;;;;;;;12.54;42.29;102542.72;5029932;28;20095;-64
2022/03/27 06:54:52;;;;;;;45.40;30.50;;;;;;;12.71;41.91;102537.69;5030215;28;20041;-64
2022/03/27 06:57:18;;;;;;;43.88;28.27;;;;;;;12.86;41.40;102543.31;5030104;28;20057;-64
2022/03/27 07:05:22;;;;;;;40.58;28.55;;;;;;;13.25;40.12;102536.59;5029855;28;20073;-64
2022/03/27 07:07:53;;;;;;;44.20;28.80;;;;;;;13.44;39.42;102529.69;5029668;28;20060;-64
2022/03/27 07:10:20;;;;;;;42.70;29.55;;;;;;;13.62;39.05;102525.44;5029589;28;20452;-64
2022/03/27 07:12:48;;;;;;;46.90;30.48;;;;;;;13.65;39.02;102530.59;5029573;28;20413;-64
2022/03/27 07:15:14;;;;;;;56.38;36.30;;;;;;;13.67;39.10;102535.81;5029711;28;20050;-64
2022/03/27 07:17:48;;;;;;;60.85;35.90;;;;;;;13.73;38.86;102535.56;5028413;28;20060;-63
2022/03/27 07:20:29;;;;;;;41.35;25.48;;;;;;;13.97;38.26;102533.69;5029588;28;20571;-64
2022/03/27 07:22:59;;;;;;;45.22;29.33;;;;;;;14.18;38.41;102542.47;5029573;28;20049;-63
2022/03/27 07:25:29;;;;;;;43.88;30.00;;;;;;;14.32;37.88;102541.88;5028802;28;20046;-62
2022/03/27 07:27:56;;;;;;;40.03;27.17;;;;;;;14.53;37.55;102547.13;5028910;28;20053;-63
2022/03/27 07:30:23;;;;;;;40.53;26.75;;;;;;;14.65;37.31;102548.38;5029519;28;20119;-63
2022/03/27 07:32:52;;;;;;;40.22;26.38;;;;;;;14.81;36.80;102548.56;5029754;28;20077;-63
2022/03/27 07:35:19;;;;;;;45.70;27.25;;;;;;;14.97;36.70;102552.22;5028890;28;20049;-63
2022/03/27 07:37:47;;;;;;;38.30;28.98;;;;;;;15.18;36.49;102550.38;5029290;28;20050;-64
2022/03/27 07:40:14;;;;;;;38.08;27.45;;;;;;;15.19;36.53;102552.06;5029404;28;20049;-63
2022/03/27 07:42:43;;;;;;;39.20;25.70;;;;;;;15.28;36.30;102553.41;5029244;28;20045;-63
2022/03/27 07:45:10;;;;;;;36.42;26.23;;;;;;;15.42;36.06;102555.41;5028884;28;20452;-63
2022/03/27 07:47:37;;;;;;;38.53;26.77;;;;;;;15.45;36.25;102551.75;5028658;28;20071;-63
2022/03/27 07:50:06;;;;;;;40.38;27.88;;;;;;;15.54;36.17;102548.69;5027435;28;20037;-62
2022/03/27 07:52:34;;;;;;;39.47;27.38;;;;;;;15.74;35.90;102546.81;5029006;28;20500;-64
2022/03/27 07:55:02;;;;;;;38.85;27.58;;;;;;;15.85;35.76;102543.69;5028474;28;20106;-64
2022/03/27 07:57:29;;;;;;;39.80;26.23;;;;;;;16.01;35.37;102539.34;5028919;28;20503;-64
2022/03/27 07:59:56;;;;;;;42.00;28.13;;;;;;;16.15;35.24;102550.06;5027951;28;20054;-64
2022/03/27 08:02:23;;;;;;;39.83;26.25;;;;;;;16.28;34.98;102546.78;5029013;28;20054;-64
2022/03/27 08:04:52;;;;;;;38.17;26.20;;;;;;;16.50;34.50;102551.81;5029090;28;20125;-63
2022/03/27 08:07:19;;;;;;;38.55;26.17;;;;;;;16.58;34.15;102549.63;5027792;28;20437;-64
2022/03/27 08:09:46;;;;;;;35.92;26.52;;;;;;;16.74;34.10;102552.28;5028850;28;20050;-64
2022/03/27 08:12:12;;;;;;;38.42;26.85;;;;;;;16.76;33.90;102554.84;5028924;28;20094;-64
2022/03/27 08:14:39;;;;;;;35.13;26.20;;;;;;;16.95;33.40;102557.41;5028766;28;20045;-64
2022/03/27 08:17:07;;;;;;;37.22;26.00;;;;;;;17.16;33.06;102549.22;5028912;28;20457;-65
2022/03/27 08:19:34;;;;;;;34.25;24.58;;;;;;;17.32;32.87;102547.41;5028769;28;20092;-64
2022/03/27 08:22:01;;;;;;;39.40;25.88;;;;;;;17.42;32.50;102556.56;5029250;28;20064;-63
2022/03/27 08:24:28;;;;;;;36.85;24.58;;;;;;;17.53;32.27;102555.09;5027530;28;20409;-66
2022/03/27 08:26:55;;;;;;;39.65;26.52;;;;;;;17.75;32.01;102546.72;5025690;28;20053;-65
2022/03/27 08:29:39;;;;;;;38.22;24.75;;;;;;;17.90;31.66;102547.63;5015238;28;20100;-64
2022/03/27 08:32:08;;;;;;;34.55;25.15;;;;;;;18.03;31.44;102551.31;5008589;28;20074;-64
2022/03/27 08:34:37;;;;;;;38.28;25.70;;;;;;;18.13;31.51;102550.75;5009444;28;20042;-64
2022/03/27 08:37:08;;;;;;;42.45;26.55;;;;;;;18.26;31.46;102554.41;5011605;28;20186;-64
2022/03/27 08:39:35;;;;;;;39.22;25.55;;;;;;;18.36;30.95;102552.88;5010906;28;20069;-64
2022/03/27 08:42:03;;;;;;;34.25;25.02;;;;;;;18.54;30.45;102550.91;5007785;28;20046;-63
2022/03/27 08:44:30;;;;;;;40.97;26.15;;;;;;;18.59;30.52;102553.28;5007997;28;20041;-64
2022/03/27 08:46:58;;;;;;;34.88;25.35;;;;;;;18.75;30.04;102545.19;5011440;28;20049;-64
2022/03/27 08:49:41;;;;;;;31.70;23.25;;;;;;;18.99;29.63;102548.13;5028349;28;20057;-64
2022/03/27 08:52:39;;;;;;;34.22;25.30;;;;;;;19.25;29.07;102549.13;5028429;28;20194;-64
2022/03/27 08:55:16;;;;;;;34.97;24.55;;;;;;;19.52;28.68;102548.28;5011742;28;20048;-65
2022/03/27 08:57:54;;;;;;;38.83;25.80;;;;;;;19.72;28.48;102554.94;5027271;28;20633;-64
2022/03/27 09:00:26;;;;;;;36.25;25.00;;;;;;;19.84;28.40;102553.28;5028701;28;20087;-64
2022/03/27 09:02:55;;;;;;;34.92;24.65;;;;;;;20.04;28.09;102551.94;5028681;28;20456;-64
2022/03/27 09:05:22;;;;;;;33.22;21.48;;;;;;;20.18;28.33;102544.81;5028249;28;20421;-64
2022/03/27 09:07:50;;;;;;;30.88;22.52;;;;;;;20.34;28.02;102550.81;5028442;28;20049;-64
2022/03/27 09:10:17;;;;;;;32.75;23.88;;;;;;;20.50;27.41;102544.38;5028567;28;20111;-65
2022/03/27 09:12:45;;;;;;;32.45;23.73;;;;;;;20.68;27.25;102552.91;5031025;28;20052;-65
2022/03/27 09:15:19;;;;;;;35.55;23.15;;;;;;;20.85;26.84;102544.59;5029908;28;20042;-65
2022/03/27 09:18:09;;;;;;;29.15;23.10;;;;;;;21.10;26.33;102541.94;5032009;28;20476;-65
2022/03/27 09:20:36;;;;;;;30.90;23.85;;;;;;;20.97;26.34;102540.16;5031861;28;20049;-65
2022/03/27 09:23:26;;;;;;;36.10;24.95;;;;;;;21.12;25.53;102540.03;5031789;28;20257;-65
2022/03/27 09:25:53;;;;;;;33.35;24.30;;;;;;;21.25;25.38;102539.97;5031596;28;20481;-65
2022/03/27 09:28:30;;;;;;;33.95;23.70;;;;;;;21.46;25.32;102541.06;5031602;28;20420;-65
2022/03/27 09:31:03;;;;;;;34.88;25.25;;;;;;;21.63;25.18;102533.63;5030728;28;20413;-64
2022/03/27 09:33:36;;;;;;;35.33;23.80;;;;;;;21.82;25.10;102533.91;5031464;28;20056;-65
2022/03/27 09:36:07;;;;;;;37.55;24.73;;;;;;;22.06;24.96;102532.16;5031616;28;20554;-65
2022/03/27 09:38:35;;;;;;;34.65;22.73;;;;;;;22.21;24.38;102520.28;5031409;28;20144;-64
2022/03/27 09:41:02;;;;;;;33.13;20.90;;;;;;;22.29;24.45;102519.69;5031374;28;20049;-66
2022/03/27 09:43:29;;;;;;;33.13;22.92;;;;;;;22.53;24.39;102522.25;5031060;28;20092;-62
2022/03/27 09:46:02;;;;;;;28.20;21.23;;;;;;;22.69;24.64;102521.03;5031340;28;20042;-63
2022/03/27 09:48:29;;;;;;;34.97;21.75;;;;;;;22.87;24.50;102518.69;5030266;28;20057;-62
2022/03/27 09:51:00;;;;;;;33.35;23.27;;;;;;;22.92;24.31;102514.69;5031394;28;20041;-63
2022/03/27 09:53:32;;;;;;;29.67;21.95;;;;;;;22.95;24.25;102511.72;5030992;28;20049;-63
2022/03/27 09:55:58;;;;;;;31.75;23.92;;;;;;;23.14;24.50;102515.59;5031092;28;20056;-63
2022/03/27 09:58:46;;;;;;;40.25;24.38;;;;;;;23.40;24.24;102509.91;5030927;28;20049;-63
2022/03/27 10:01:17;;;;;;;35.35;24.25;;;;;;;23.43;23.84;102515.88;5031187;28;20056;-63
2022/03/27 10:04:02;;;;;;;40.40;25.83;;;;;;;23.56;23.47;102504.97;5030164;28;20683;-62
2022/03/27 10:06:39;;;;;;;34.80;24.25;;;;;;;23.73;23.05;102500.88;5028361;28;20050;-62
2022/03/27 10:09:08;;;;;;;29.88;22.92;;;;;;;23.85;22.51;102500.81;5030584;28;20818;-62
2022/03/27 10:11:36;;;;;;;30.23;22.75;;;;;;;23.70;22.17;102497.59;5030803;28;20045;-63
2022/03/27 10:14:04;;;;;;;34.30;24.38;;;;;;;24.02;21.82;102492.16;5029597;28;20437;-63
2022/03/27 10:16:34;;;;;;;30.80;22.65;;;;;;;24.18;21.77;102493.53;5030456;28;20049;-64
2022/03/27 10:19:21;;;;;;;32.95;23.95;;;;;;;24.18;21.21;102485.50;5030530;28;20053;-63
2022/03/27 10:21:51;;;;;;;29.73;23.23;;;;;;;24.36;21.14;102485.72;5010708;28;20050;-65
2022/03/27 10:24:19;;;;;;;27.80;22.98;;;;;;;24.57;20.67;102491.84;5016787;28;20053;-66
2022/03/27 10:26:46;;;;;;;32.05;23.52;;;;;;;24.57;20.41;102478.44;5029809;28;20056;-64
2022/03/27 10:29:14;;;;;;;31.42;24.08;;;;;;;24.21;20.69;102478.00;5030421;28;20046;-64
2022/03/27 10:31:40;;;;;;;32.92;23.10;;;;;;;24.54;20.60;102476.00;5030252;28;20049;-63
2022/03/27 10:34:11;;;;;;;29.20;22.17;;;;;;;24.80;20.83;102475.56;5030563;28;20049;-63
2022/03/27 10:36:41;;;;;;;29.23;20.95;;;;;;;24.73;20.92;102483.28;5029191;28;20091;-64
2022/03/27 10:39:13;;;;;;;30.17;21.40;;;;;;;24.61;20.38;102474.47;5030202;28;20060;-63
2022/03/27 10:41:48;;;;;;;23.30;17.70;;;;;;;24.74;20.30;102473.41;5029947;28;20095;-63
2022/03/27 10:44:28;;;;;;;;;;;;;;;25.14;19.55;102466.25;5030581;28;20046;-63
2022/03/27 10:47:11;;;;;;;25.45;19.30;;;;;;;24.99;19.57;102463.97;5030099;28;19925;-63
2022/03/27 10:49:39;;;;;;;25.35;18.80;;;;;;;25.01;19.10;102464.66;5030068;28;20100;-64
2022/03/27 10:52:07;;;;;;;23.33;18.17;;;;;;;24.89;19.18;102455.91;5029437;28;20076;-62
2022/03/27 10:54:58;;;;;;;23.08;18.30;;;;;;;25.10;18.54;102452.25;5028545;28;20050;-62
2022/03/27 10:57:34;;;;;;;22.17;16.35;;;;;;;25.37;18.06;102456.94;5009761;28;20494;-61
2022/03/27 11:00:01;;;;;;;21.40;15.35;;;;;;;25.62;17.40;102445.72;5012483;28;20100;-63
2022/03/27 11:02:47;;;;;;;20.95;15.43;;;;;;;25.70;17.32;102448.53;5030136;28;20053;-62
2022/03/27 11:05:29;;;;;;;22.83;16.67;;;;;;;25.96;16.81;102431.75;5029673;28;20489;-63
2022/03/27 11:08:17;;;;;;;22.73;17.70;;;;;;;26.09;16.72;102426.91;5029879;28;20045;-62
2022/03/27 11:10:55;;;;;;;23.80;17.92;;;;;;;26.23;16.92;102429.13;5029951;28;20049;-65
2022/03/27 11:13:25;;;;;;;24.42;18.23;;;;;;;26.30;16.97;102423.13;5028735;28;20051;-65
2022/03/27 11:16:05;;;;;;;25.58;18.02;;;;;;;26.37;17.26;102418.81;5029592;28;20065;-64
2022/03/27 11:18:35;;;;;;;25.63;17.92;;;;;;;26.06;17.61;102419.97;5009590;28;20382;-63
2022/03/27 11:21:04;;;;;;;27.55;16.83;;;;;;;26.17;17.65;102416.25;5026082;28;20041;-64
2022/03/27 11:23:33;;;;;;;23.35;15.90;;;;;;;26.28;17.49;102419.75;5029551;28;20060;-64
2022/03/27 11:26:02;;;;;;;20.90;16.25;;;;;;;26.24;17.90;102409.28;5029512;28;20046;-64
2022/03/27 11:29:04;;;;;;;22.02;15.88;;;;;;;26.03;17.83;102414.88;5027042;28;20092;-64
2022/03/27 11:31:31;;;;;;;20.63;14.95;;;;;;;26.17;17.54;102413.56;5025891;28;20080;-63